sensor_id;sensor_type;location;lat;lon;timestamp;pressure;altitude;pressure_sealevel;temperature;humidity
50484;BME280;36409;52.168;20.878;2023-06-26T00:02:15;100454.67;;;14.51;60.57
50484;BME280;36409;52.168;20.878;2023-06-26T00:04:45;100457.33;;;14.49;61.14
50484;BME280;36409;52.168;20.878;2023-06-26T00:07:14;100454.76;;;14.48;61.04
50484;BME280;36409;52.168;20.878;2023-06-26T00:09:47;100458.37;;;14.44;60.37
50484;BME280;36409;52.168;20.878;2023-06-26T00:12:16;100462.08;;;14.36;60.88
50484;BME280;36409;52.168;20.878;2023-06-26T00:14:48;100464.86;;;14.30;61.35
50484;BME280;36409;52.168;20.878;2023-06-26T00:17:19;100460.55;;;14.29;61.14
50484;BME280;36409;52.168;20.878;2023-06-26T00:19:48;100464.09;;;14.27;61.00
50484;BME280;36409;52.168;20.878;2023-06-26T00:22:18;100458.90;;;14.25;61.80
50484;BME280;36409;52.168;20.878;2023-06-26T00:24:52;100458.95;;;14.24;61.01
50484;BME280;36409;52.168;20.878;2023-06-26T00:27:22;100458.98;;;14.22;61.49
50484;BME280;36409;52.168;20.878;2023-06-26T00:29:51;100462.48;;;14.23;62.17
50484;BME280;36409;52.168;20.878;2023-06-26T00:32:21;100462.42;;;14.24;62.33
50484;BME280;36409;52.168;20.878;2023-06-26T00:34:50;100461.52;;;14.25;61.99
50484;BME280;36409;52.168;20.878;2023-06-26T00:37:20;100465.05;;;14.24;61.63
50484;BME280;36409;52.168;20.878;2023-06-26T00:39:50;100461.66;;;14.20;62.48
50484;BME280;36409;52.168;20.878;2023-06-26T00:42:20;100453.91;;;14.16;62.29
50484;BME280;36409;52.168;20.878;2023-06-26T00:44:49;100457.52;;;14.12;61.75
50484;BME280;36409;52.168;20.878;2023-06-26T00:47:18;100444.45;;;14.10;61.95
50484;BME280;36409;52.168;20.878;2023-06-26T00:49:47;100448.87;;;14.08;62.40
50484;BME280;36409;52.168;20.878;2023-06-26T00:52:18;100451.55;;;14.07;63.05
50484;BME280;36409;52.168;20.878;2023-06-26T00:54:47;100449.02;;;14.02;62.56
50484;BME280;36409;52.168;20.878;2023-06-26T00:57:18;100442.09;;;13.99;62.11
50484;BME280;36409;52.168;20.878;2023-06-26T00:59:49;100447.40;;;13.98;62.41
50484;BME280;36409;52.168;20.878;2023-06-26T01:02:19;100443.13;;;13.94;63.32
50484;BME280;36409;52.168;20.878;2023-06-26T01:04:49;100442.42;;;13.87;62.49
50484;BME280;36409;52.168;20.878;2023-06-26T01:07:22;100441.70;;;13.82;62.48
50484;BME280;36409;52.168;20.878;2023-06-26T01:09:52;100441.78;;;13.79;62.68
50484;BME280;36409;52.168;20.878;2023-06-26T01:12:21;100441.78;;;13.79;63.37
50484;BME280;36409;52.168;20.878;2023-06-26T01:14:50;100441.91;;;13.74;63.05
50484;BME280;36409;52.168;20.878;2023-06-26T01:17:19;100433.26;;;13.70;63.64
50484;BME280;36409;52.168;20.878;2023-06-26T01:19:52;100431.48;;;13.71;62.93
50484;BME280;36409;52.168;20.878;2023-06-26T01:22:29;100424.61;;;13.67;62.64
50484;BME280;36409;52.168;20.878;2023-06-26T01:25:12;100432.48;;;13.67;63.17
50484;BME280;36409;52.168;20.878;2023-06-26T01:27:48;100429.03;;;13.65;63.38
50484;BME280;36409;52.168;20.878;2023-06-26T01:30:18;100432.55;;;13.64;63.25
50484;BME280;36409;52.168;20.878;2023-06-26T01:32:48;100426.48;;;13.62;64.17
50484;BME280;36409;52.168;20.878;2023-06-26T01:35:19;100430.00;;;13.61;63.31
50484;BME280;36409;52.168;20.878;2023-06-26T01:37:48;100434.42;;;13.58;63.88
50484;BME280;36409;52.168;20.878;2023-06-26T01:40:17;100430.08;;;13.57;64.30
50484;BME280;36409;52.168;20.878;2023-06-26T01:42:47;100429.27;;;13.55;63.83
50484;BME280;36409;52.168;20.878;2023-06-26T01:45:21;100428.39;;;13.55;64.13
50484;BME280;36409;52.168;20.878;2023-06-26T01:47:53;100421.43;;;13.54;64.01
50484;BME280;36409;52.168;20.878;2023-06-26T01:50:28;100413.68;;;13.49;64.27
50484;BME280;36409;52.168;20.878;2023-06-26T01:53:03;100418.09;;;13.47;64.81
50484;BME280;36409;52.168;20.878;2023-06-26T01:55:34;100418.22;;;13.42;63.52
50484;BME280;36409;52.168;20.878;2023-06-26T01:58:07;100413.92;;;13.40;64.36
50484;BME280;36409;52.168;20.878;2023-06-26T02:00:39;100420.92;;;13.38;64.31
50484;BME280;36409;52.168;20.878;2023-06-26T02:03:10;100417.47;;;13.36;64.18
50484;BME280;36409;52.168;20.878;2023-06-26T02:05:45;100427.11;;;13.35;64.96
50484;BME280;36409;52.168;20.878;2023-06-26T02:08:15;100416.70;;;13.32;64.93
50484;BME280;36409;52.168;20.878;2023-06-26T02:10:50;100410.63;;;13.30;64.67
50484;BME280;36409;52.168;20.878;2023-06-26T02:13:19;100408.11;;;13.27;64.26
50484;BME280;36409;52.168;20.878;2023-06-26T02:15:49;100408.17;;;13.24;64.20
50484;BME280;36409;52.168;20.878;2023-06-26T02:18:18;100402.99;;;13.21;64.36
50484;BME280;36409;52.168;20.878;2023-06-26T02:20:52;100407.41;;;13.19;64.72
50484;BME280;36409;52.168;20.878;2023-06-26T02:23:23;100411.85;;;13.17;64.09
50484;BME280;36409;52.168;20.878;2023-06-26T02:25:51;100406.63;;;13.15;64.16
50484;BME280;36409;52.168;20.878;2023-06-26T02:28:20;100409.30;;;13.13;65.06
50484;BME280;36409;52.168;20.878;2023-06-26T02:30:52;100399.70;;;13.12;64.92
50484;BME280;36409;52.168;20.878;2023-06-26T02:33:21;100397.98;;;13.11;64.30
50484;BME280;36409;52.168;20.878;2023-06-26T02:35:50;100404.13;;;13.10;64.49
50484;BME280;36409;52.168;20.878;2023-06-26T02:38:19;100399.77;;;13.09;65.18
50484;BME280;36409;52.168;20.878;2023-06-26T02:40:48;100402.39;;;13.09;64.74
50484;BME280;36409;52.168;20.878;2023-06-26T02:43:18;100400.67;;;13.08;65.44
50484;BME280;36409;52.168;20.878;2023-06-26T02:45:47;100402.46;;;13.06;65.94
50484;BME280;36409;52.168;20.878;2023-06-26T02:48:19;100405.08;;;13.06;64.97
50484;BME280;36409;52.168;20.878;2023-06-26T02:50:49;100411.20;;;13.07;65.92
50484;BME280;36409;52.168;20.878;2023-06-26T02:53:18;100410.32;;;13.06;65.03
50484;BME280;36409;52.168;20.878;2023-06-26T02:55:47;100412.05;;;13.07;65.36
50484;BME280;36409;52.168;20.878;2023-06-26T02:58:17;100406.79;;;13.09;65.40
50484;BME280;36409;52.168;20.878;2023-06-26T03:00:46;100408.52;;;13.10;66.07
50484;BME280;36409;52.168;20.878;2023-06-26T03:03:17;100405.00;;;13.11;64.95
50484;BME280;36409;52.168;20.878;2023-06-26T03:05:48;100404.07;;;13.12;65.48
50484;BME280;36409;52.168;20.878;2023-06-26T03:08:17;100404.90;;;13.14;65.53
50484;BME280;36409;52.168;20.878;2023-06-26T03:10:46;100410.13;;;13.16;66.17
50484;BME280;36409;52.168;20.878;2023-06-26T03:13:16;100403.16;;;13.15;65.35
50484;BME280;36409;52.168;20.878;2023-06-26T03:15:47;100405.78;;;13.15;66.14
50484;BME280;36409;52.168;20.878;2023-06-26T03:18:17;100404.88;;;13.16;65.33
50484;BME280;36409;52.168;20.878;2023-06-26T03:20:46;100413.53;;;13.19;66.45
50484;BME280;36409;52.168;20.878;2023-06-26T03:23:16;100410.55;;;13.33;66.32
50484;BME280;36409;52.168;20.878;2023-06-26T03:25:46;100404.67;;;13.59;66.52
50484;BME280;36409;52.168;20.878;2023-06-26T03:28:36;100404.73;;;13.58;66.49
50484;BME280;36409;52.168;20.878;2023-06-26T03:31:05;100414.44;;;13.54;66.43
50484;BME280;36409;52.168;20.878;2023-06-26T03:33:35;100413.56;;;13.54;66.82
50484;BME280;36409;52.168;20.878;2023-06-26T03:36:07;100413.49;;;13.57;66.55
50484;BME280;36409;52.168;20.878;2023-06-26T03:38:39;100406.45;;;13.59;66.91
50484;BME280;36409;52.168;20.878;2023-06-26T03:41:08;100407.23;;;13.63;66.22
50484;BME280;36409;52.168;20.878;2023-06-26T03:43:38;100416.70;;;13.68;67.10
50484;BME280;36409;52.168;20.878;2023-06-26T03:46:25;100408.65;;;13.74;66.87
50484;BME280;36409;52.168;20.878;2023-06-26T03:48:55;100411.13;;;13.81;66.21
50484;BME280;36409;52.168;20.878;2023-06-26T03:51:24;100411.84;;;13.86;66.81
50484;BME280;36409;52.168;20.878;2023-06-26T03:53:56;100420.47;;;13.91;66.22
50484;BME280;36409;52.168;20.878;2023-06-26T03:56:26;100414.14;;;13.98;66.92
50484;BME280;36409;52.168;20.878;2023-06-26T03:58:55;100413.03;;;14.07;67.12
50484;BME280;36409;52.168;20.878;2023-06-26T04:01:24;100408.41;;;14.15;67.30
50484;BME280;36409;52.168;20.878;2023-06-26T04:03:56;100408.14;;;14.25;67.20
50484;BME280;36409;52.168;20.878;2023-06-26T04:06:27;100409.63;;;14.35;66.35
50484;BME280;36409;52.168;20.878;2023-06-26T04:08:57;100411.92;;;14.46;66.73
50484;BME280;36409;52.168;20.878;2023-06-26T04:11:27;100402.83;;;14.58;66.74
50484;BME280;36409;52.168;20.878;2023-06-26T04:13:57;100409.03;;;14.85;67.05
50484;BME280;36409;52.168;20.878;2023-06-26T04:16:26;100409.80;;;15.16;66.63
50484;BME280;36409;52.168;20.878;2023-06-26T04:18:56;100407.48;;;15.33;67.52
50484;BME280;36409;52.168;20.878;2023-06-26T04:21:25;100410.55;;;15.46;66.89
50484;BME280;36409;52.168;20.878;2023-06-26T04:23:54;100404.88;;;15.58;66.99
50484;BME280;36409;52.168;20.878;2023-06-26T04:26:23;100409.72;;;15.71;66.93
50484;BME280;36409;52.168;20.878;2023-06-26T04:28:52;100404.94;;;15.82;67.37
50484;BME280;36409;52.168;20.878;2023-06-26T04:31:21;100407.09;;;15.96;67.15
50484;BME280;36409;52.168;20.878;2023-06-26T04:33:50;100403.75;;;16.16;67.07
50484;BME280;36409;52.168;20.878;2023-06-26T04:36:23;100408.77;;;16.46;66.84
50484;BME280;36409;52.168;20.878;2023-06-26T04:38:55;100396.27;;;17.82;65.13
50484;BME280;36409;52.168;20.878;2023-06-26T04:41:25;100402.55;;;19.50;63.91
50484;BME280;36409;52.168;20.878;2023-06-26T04:43:54;100393.61;;;21.32;63.43
50484;BME280;36409;52.168;20.878;2023-06-26T04:46:24;100385.95;;;23.26;62.86
50484;BME280;36409;52.168;20.878;2023-06-26T04:48:53;100391.53;;;25.12;61.37
50484;BME280;36409;52.168;20.878;2023-06-26T04:51:22;100396.53;;;26.89;60.12
50484;BME280;36409;52.168;20.878;2023-06-26T04:53:51;100388.41;;;28.38;58.19
50484;BME280;36409;52.168;20.878;2023-06-26T04:56:20;100388.73;;;29.62;56.23
50484;BME280;36409;52.168;20.878;2023-06-26T04:58:50;100386.11;;;30.74;54.83
50484;BME280;36409;52.168;20.878;2023-06-26T05:01:19;100392.94;;;31.93;52.92
50484;BME280;36409;52.168;20.878;2023-06-26T05:03:48;100389.92;;;32.99;51.82
50484;BME280;36409;52.168;20.878;2023-06-26T05:06:18;100389.84;;;33.90;49.37
50484;BME280;36409;52.168;20.878;2023-06-26T05:08:47;100388.20;;;34.52;47.44
50484;BME280;36409;52.168;20.878;2023-06-26T05:11:16;100390.17;;;35.13;46.19
50484;BME280;36409;52.168;20.878;2023-06-26T05:13:45;100388.31;;;35.66;44.54
50484;BME280;36409;52.168;20.878;2023-06-26T05:16:14;100384.19;;;36.30;43.61
50484;BME280;36409;52.168;20.878;2023-06-26T05:18:47;100391.19;;;36.98;42.37
50484;BME280;36409;52.168;20.878;2023-06-26T05:21:16;100395.48;;;37.64;41.08
50484;BME280;36409;52.168;20.878;2023-06-26T05:23:47;100382.20;;;37.83;39.69
50484;BME280;36409;52.168;20.878;2023-06-26T05:26:17;100379.74;;;38.37;38.84
50484;BME280;36409;52.168;20.878;2023-06-26T05:28:47;100375.38;;;38.69;37.78
50484;BME280;36409;52.168;20.878;2023-06-26T05:31:18;100369.99;;;38.89;36.63
50484;BME280;36409;52.168;20.878;2023-06-26T05:33:48;100375.23;;;39.24;35.96
50484;BME280;36409;52.168;20.878;2023-06-26T05:36:19;100376.84;;;39.66;35.24
50484;BME280;36409;52.168;20.878;2023-06-26T05:38:49;100378.50;;;39.87;34.23
50484;BME280;36409;52.168;20.878;2023-06-26T05:41:20;100373.56;;;40.09;33.75
50484;BME280;36409;52.168;20.878;2023-06-26T05:43:49;100374.35;;;40.30;32.92
50484;BME280;36409;52.168;20.878;2023-06-26T05:46:18;100374.50;;;40.74;32.75
50484;BME280;36409;52.168;20.878;2023-06-26T05:48:47;100367.64;;;40.90;32.24
50484;BME280;36409;52.168;20.878;2023-06-26T05:51:18;100365.45;;;41.05;31.12
50484;BME280;36409;52.168;20.878;2023-06-26T05:53:48;100375.36;;;41.25;30.79
50484;BME280;36409;52.168;20.878;2023-06-26T05:56:18;100367.66;;;41.59;30.59
50484;BME280;36409;52.168;20.878;2023-06-26T05:58:50;100363.40;;;41.82;30.13
50484;BME280;36409;52.168;20.878;2023-06-26T06:01:20;100362.43;;;42.25;29.96
50484;BME280;36409;52.168;20.878;2023-06-26T06:03:50;100368.79;;;42.68;29.18
50484;BME280;36409;52.168;20.878;2023-06-26T06:06:20;100363.23;;;42.87;28.73
50484;BME280;36409;52.168;20.878;2023-06-26T06:08:50;100363.50;;;43.09;28.32
50484;BME280;36409;52.168;20.878;2023-06-26T06:11:20;100357.03;;;43.15;27.72
50484;BME280;36409;52.168;20.878;2023-06-26T06:13:53;100360.55;;;43.23;27.37
50484;BME280;36409;52.168;20.878;2023-06-26T06:16:21;100357.05;;;43.39;27.16
50484;BME280;36409;52.168;20.878;2023-06-26T06:18:50;100357.19;;;43.44;27.34
50484;BME280;36409;52.168;20.878;2023-06-26T06:21:19;100351.44;;;42.86;27.50
50484;BME280;36409;52.168;20.878;2023-06-26T06:23:48;100355.81;;;41.65;28.01
50484;BME280;36409;52.168;20.878;2023-06-26T06:26:18;100352.50;;;39.64;28.96
50484;BME280;36409;52.168;20.878;2023-06-26T06:28:47;100357.18;;;38.08;29.57
50484;BME280;36409;52.168;20.878;2023-06-26T06:31:16;100358.70;;;36.68;30.29
50484;BME280;36409;52.168;20.878;2023-06-26T06:33:46;100358.63;;;35.35;30.69
50484;BME280;36409;52.168;20.878;2023-06-26T06:36:15;100361.82;;;34.14;31.27
50484;BME280;36409;52.168;20.878;2023-06-26T06:38:48;100360.36;;;33.05;31.99
50484;BME280;36409;52.168;20.878;2023-06-26T06:41:17;100363.47;;;32.00;32.45
50484;BME280;36409;52.168;20.878;2023-06-26T06:43:48;100359.41;;;31.17;32.93
50484;BME280;36409;52.168;20.878;2023-06-26T06:46:16;100362.42;;;30.59;33.25
50484;BME280;36409;52.168;20.878;2023-06-26T06:48:47;100351.56;;;29.95;33.72
50484;BME280;36409;52.168;20.878;2023-06-26T06:51:16;100356.95;;;29.48;34.30
50484;BME280;36409;52.168;20.878;2023-06-26T06:53:45;100360.09;;;29.04;34.85
50484;BME280;36409;52.168;20.878;2023-06-26T06:56:14;100356.69;;;28.72;35.51
50484;BME280;36409;52.168;20.878;2023-06-26T06:58:49;100363.00;;;28.42;35.71
50484;BME280;36409;52.168;20.878;2023-06-26T07:01:20;100362.52;;;28.17;35.96
50484;BME280;36409;52.168;20.878;2023-06-26T07:03:49;100358.87;;;27.97;36.25
50484;BME280;36409;52.168;20.878;2023-06-26T07:06:18;100356.55;;;27.82;36.48
50484;BME280;36409;52.168;20.878;2023-06-26T07:08:48;100357.98;;;27.86;36.62
50484;BME280;36409;52.168;20.878;2023-06-26T07:11:17;100358.34;;;28.03;36.87
50484;BME280;36409;52.168;20.878;2023-06-26T07:13:48;100355.98;;;28.70;36.78
50484;BME280;36409;52.168;20.878;2023-06-26T07:16:17;100350.46;;;29.11;36.39
50484;BME280;36409;52.168;20.878;2023-06-26T07:18:47;100352.89;;;28.94;36.51
50484;BME280;36409;52.168;20.878;2023-06-26T07:21:17;100345.52;;;28.67;36.75
50484;BME280;36409;52.168;20.878;2023-06-26T07:23:46;100347.61;;;28.54;36.94
50484;BME280;36409;52.168;20.878;2023-06-26T07:26:15;100350.57;;;28.41;36.90
50484;BME280;36409;52.168;20.878;2023-06-26T07:28:45;100346.53;;;28.15;36.99
50484;BME280;36409;52.168;20.878;2023-06-26T07:31:14;100348.70;;;27.90;37.18
50484;BME280;36409;52.168;20.878;2023-06-26T07:33:45;100351.47;;;27.79;37.60
50484;BME280;36409;52.168;20.878;2023-06-26T07:36:15;100350.52;;;27.59;37.42
50484;BME280;36409;52.168;20.878;2023-06-26T07:38:45;100344.74;;;27.42;37.84
50484;BME280;36409;52.168;20.878;2023-06-26T07:41:14;100354.30;;;27.35;38.00
50484;BME280;36409;52.168;20.878;2023-06-26T07:43:45;100346.19;;;27.25;38.36
50484;BME280;36409;52.168;20.878;2023-06-26T07:46:16;100348.42;;;27.20;38.54
50484;BME280;36409;52.168;20.878;2023-06-26T07:48:46;100348.63;;;27.07;38.46
50484;BME280;36409;52.168;20.878;2023-06-26T07:51:15;100345.33;;;27.04;38.71
50484;BME280;36409;52.168;20.878;2023-06-26T07:53:46;100350.69;;;27.04;38.92
50484;BME280;36409;52.168;20.878;2023-06-26T07:56:15;100342.60;;;26.94;38.94
50484;BME280;36409;52.168;20.878;2023-06-26T07:58:46;100349.27;;;27.00;38.77
50484;BME280;36409;52.168;20.878;2023-06-26T08:01:15;100344.36;;;27.05;39.05
50484;BME280;36409;52.168;20.878;2023-06-26T08:03:45;100337.19;;;27.05;39.21
50484;BME280;36409;52.168;20.878;2023-06-26T08:06:15;100338.27;;;27.03;39.25
50484;BME280;36409;52.168;20.878;2023-06-26T08:08:45;100341.09;;;27.01;39.36
50484;BME280;36409;52.168;20.878;2023-06-26T08:11:14;100337.97;;;26.96;39.36
50484;BME280;36409;52.168;20.878;2023-06-26T08:13:46;100336.27;;;26.95;39.25
50484;BME280;36409;52.168;20.878;2023-06-26T08:16:15;100337.74;;;26.88;39.28
50484;BME280;36409;52.168;20.878;2023-06-26T08:18:46;100341.00;;;26.91;39.54
50484;BME280;36409;52.168;20.878;2023-06-26T08:21:15;100332.14;;;26.91;39.50
50484;BME280;36409;52.168;20.878;2023-06-26T08:23:47;100332.53;;;26.86;39.82
50484;BME280;36409;52.168;20.878;2023-06-26T08:26:16;100329.46;;;26.91;39.55
50484;BME280;36409;52.168;20.878;2023-06-26T08:28:45;100328.09;;;26.96;39.63
50484;BME280;36409;52.168;20.878;2023-06-26T08:31:15;100327.27;;;26.96;39.53
50484;BME280;36409;52.168;20.878;2023-06-26T08:33:46;100328.82;;;26.98;39.43
50484;BME280;36409;52.168;20.878;2023-06-26T08:36:15;100333.92;;;27.02;39.56
50484;BME280;36409;52.168;20.878;2023-06-26T08:38:45;100334.91;;;27.01;39.21
50484;BME280;36409;52.168;20.878;2023-06-26T08:41:14;100332.72;;;26.94;38.99
50484;BME280;36409;52.168;20.878;2023-06-26T08:43:46;100323.33;;;27.00;39.18
50484;BME280;36409;52.168;20.878;2023-06-26T08:46:16;100326.39;;;26.95;39.45
50484;BME280;36409;52.168;20.878;2023-06-26T08:48:53;100329.34;;;27.13;38.91
50484;BME280;36409;52.168;20.878;2023-06-26T08:51:25;100324.31;;;27.41;39.02
50484;BME280;36409;52.168;20.878;2023-06-26T08:53:58;100329.08;;;27.59;38.31
50484;BME280;36409;52.168;20.878;2023-06-26T08:56:35;100318.02;;;27.73;37.72
50484;BME280;36409;52.168;20.878;2023-06-26T08:59:09;100322.13;;;28.09;37.60
50484;BME280;36409;52.168;20.878;2023-06-26T09:01:39;100319.92;;;28.43;37.42
50484;BME280;36409;52.168;20.878;2023-06-26T09:04:09;100316.28;;;28.84;37.34
50484;BME280;36409;52.168;20.878;2023-06-26T09:06:38;100314.55;;;29.22;37.18
50484;BME280;36409;52.168;20.878;2023-06-26T09:09:07;100310.86;;;29.33;36.96
50484;BME280;36409;52.168;20.878;2023-06-26T09:11:36;100310.45;;;29.37;36.87
50484;BME280;36409;52.168;20.878;2023-06-26T09:14:05;100300.14;;;29.70;36.79
50484;BME280;36409;52.168;20.878;2023-06-26T09:16:40;100312.70;;;30.08;36.10
50484;BME280;36409;52.168;20.878;2023-06-26T09:19:13;100303.31;;;30.40;35.76
50484;BME280;36409;52.168;20.878;2023-06-26T09:21:43;100299.03;;;30.65;35.38
50484;BME280;36409;52.168;20.878;2023-06-26T09:24:13;100297.63;;;30.79;35.10
50484;BME280;36409;52.168;20.878;2023-06-26T09:26:42;100299.08;;;30.91;35.21
50484;BME280;36409;52.168;20.878;2023-06-26T09:29:13;100298.05;;;31.10;35.10
50484;BME280;36409;52.168;20.878;2023-06-26T09:31:43;100289.39;;;31.25;34.52
50484;BME280;36409;52.168;20.878;2023-06-26T09:34:12;100290.33;;;31.42;34.59
50484;BME280;36409;52.168;20.878;2023-06-26T09:36:41;100298.30;;;31.78;34.44
50484;BME280;36409;52.168;20.878;2023-06-26T09:39:14;100292.99;;;32.03;33.90
50484;BME280;36409;52.168;20.878;2023-06-26T09:41:45;100290.58;;;32.34;33.89
50484;BME280;36409;52.168;20.878;2023-06-26T09:44:15;100289.39;;;32.45;33.52
50484;BME280;36409;52.168;20.878;2023-06-26T09:46:46;100294.81;;;32.70;33.22
50484;BME280;36409;52.168;20.878;2023-06-26T09:49:16;100288.77;;;32.85;33.66
50484;BME280;36409;52.168;20.878;2023-06-26T09:51:47;100294.99;;;32.93;33.47
50484;BME280;36409;52.168;20.878;2023-06-26T09:54:22;100294.14;;;32.60;33.29
50484;BME280;36409;52.168;20.878;2023-06-26T09:56:52;100288.48;;;32.20;33.25
50484;BME280;36409;52.168;20.878;2023-06-26T09:59:24;100290.42;;;31.93;33.01
50484;BME280;36409;52.168;20.878;2023-06-26T10:01:59;100289.16;;;32.14;33.28
50484;BME280;36409;52.168;20.878;2023-06-26T10:04:29;100289.57;;;32.52;32.96
50484;BME280;36409;52.168;20.878;2023-06-26T10:07:00;100291.45;;;32.76;32.50
50484;BME280;36409;52.168;20.878;2023-06-26T10:09:31;100283.68;;;32.73;32.57
50484;BME280;36409;52.168;20.878;2023-06-26T10:12:03;100289.89;;;32.41;32.67
50484;BME280;36409;52.168;20.878;2023-06-26T10:14:37;100281.37;;;32.02;32.31
50484;BME280;36409;52.168;20.878;2023-06-26T10:17:10;100287.05;;;31.56;32.52
50484;BME280;36409;52.168;20.878;2023-06-26T10:19:45;100281.66;;;31.04;32.50
50484;BME280;36409;52.168;20.878;2023-06-26T10:22:17;100273.64;;;30.68;32.51
50484;BME280;36409;52.168;20.878;2023-06-26T10:24:48;100271.23;;;30.83;32.80
50484;BME280;36409;52.168;20.878;2023-06-26T10:27:18;100273.72;;;31.02;32.87
50484;BME280;36409;52.168;20.878;2023-06-26T10:29:50;100263.67;;;30.86;32.58
50484;BME280;36409;52.168;20.878;2023-06-26T10:32:22;100257.53;;;31.20;32.75
50484;BME280;36409;52.168;20.878;2023-06-26T10:34:53;100259.94;;;31.58;32.70
50484;BME280;36409;52.168;20.878;2023-06-26T10:37:41;100260.95;;;31.57;32.88
50484;BME280;36409;52.168;20.878;2023-06-26T10:40:14;100259.05;;;31.49;32.59
50484;BME280;36409;52.168;20.878;2023-06-26T10:42:44;100258.22;;;31.22;32.20
50484;BME280;36409;52.168;20.878;2023-06-26T10:45:16;100263.62;;;30.78;32.36
50484;BME280;36409;52.168;20.878;2023-06-26T10:47:48;100253.84;;;30.77;32.48
50484;BME280;36409;52.168;20.878;2023-06-26T10:50:26;100239.08;;;31.07;32.57
50484;BME280;36409;52.168;20.878;2023-06-26T10:53:11;100246.45;;;31.58;32.62
50484;BME280;36409;52.168;20.878;2023-06-26T10:55:56;100248.98;;;31.60;32.44
50484;BME280;36409;52.168;20.878;2023-06-26T10:58:31;100239.34;;;31.92;32.70
50484;BME280;36409;52.168;20.878;2023-06-26T11:01:22;100238.78;;;32.39;32.44
50484;BME280;36409;52.168;20.878;2023-06-26T11:04:05;100245.34;;;32.78;32.32
50484;BME280;36409;52.168;20.878;2023-06-26T11:06:35;100242.80;;;33.01;32.11
50484;BME280;36409;52.168;20.878;2023-06-26T11:09:13;100242.48;;;32.88;32.03
50484;BME280;36409;52.168;20.878;2023-06-26T11:11:59;100228.47;;;32.76;31.76
50484;BME280;36409;52.168;20.878;2023-06-26T11:14:31;100235.39;;;32.37;31.20
50484;BME280;36409;52.168;20.878;2023-06-26T11:17:03;100233.19;;;32.49;31.70
50484;BME280;36409;52.168;20.878;2023-06-26T11:19:32;100231.50;;;32.73;31.53
50484;BME280;36409;52.168;20.878;2023-06-26T11:22:02;100218.87;;;32.65;30.84
50484;BME280;36409;52.168;20.878;2023-06-26T11:24:33;100226.63;;;32.85;31.20
50484;BME280;36409;52.168;20.878;2023-06-26T11:27:05;100230.80;;;33.12;31.05
50484;BME280;36409;52.168;20.878;2023-06-26T11:29:34;100224.31;;;33.30;30.58
50484;BME280;36409;52.168;20.878;2023-06-26T11:32:05;100221.10;;;33.43;30.46
50484;BME280;36409;52.168;20.878;2023-06-26T11:34:35;100223.03;;;33.65;30.20
50484;BME280;36409;52.168;20.878;2023-06-26T11:37:04;100219.36;;;33.90;30.41
50484;BME280;36409;52.168;20.878;2023-06-26T11:39:33;100213.31;;;34.11;30.15
50484;BME280;36409;52.168;20.878;2023-06-26T11:42:02;100215.18;;;34.33;30.24
50484;BME280;36409;52.168;20.878;2023-06-26T11:44:31;100210.19;;;34.22;29.47
50484;BME280;36409;52.168;20.878;2023-06-26T11:47:00;100208.11;;;33.69;29.40
50484;BME280;36409;52.168;20.878;2023-06-26T11:49:29;100207.41;;;33.27;29.46
50484;BME280;36409;52.168;20.878;2023-06-26T11:51:59;100211.25;;;32.85;29.60
50484;BME280;36409;52.168;20.878;2023-06-26T11:54:28;100213.79;;;32.45;29.76
50484;BME280;36409;52.168;20.878;2023-06-26T11:56:58;100204.34;;;32.58;29.84
50484;BME280;36409;52.168;20.878;2023-06-26T11:59:34;100203.85;;;32.46;29.91
50484;BME280;36409;52.168;20.878;2023-06-26T12:02:08;100200.42;;;32.11;29.58
50484;BME280;36409;52.168;20.878;2023-06-26T12:04:38;100201.55;;;31.83;29.68
50484;BME280;36409;52.168;20.878;2023-06-26T12:07:09;100199.44;;;31.61;29.71
50484;BME280;36409;52.168;20.878;2023-06-26T12:09:46;100188.64;;;31.52;29.46
50484;BME280;36409;52.168;20.878;2023-06-26T12:12:17;100193.97;;;31.79;29.85
50484;BME280;36409;52.168;20.878;2023-06-26T12:14:48;100191.47;;;32.10;30.01
50484;BME280;36409;52.168;20.878;2023-06-26T12:17:17;100176.17;;;32.44;29.87
50484;BME280;36409;52.168;20.878;2023-06-26T12:19:47;100179.88;;;32.59;29.78
50484;BME280;36409;52.168;20.878;2023-06-26T12:22:17;100174.96;;;32.79;29.59
50484;BME280;36409;52.168;20.878;2023-06-26T12:24:47;100178.47;;;32.96;29.53
50484;BME280;36409;52.168;20.878;2023-06-26T12:27:17;100174.38;;;33.09;29.31
50484;BME280;36409;52.168;20.878;2023-06-26T12:29:51;100177.03;;;33.25;29.17
50484;BME280;36409;52.168;20.878;2023-06-26T12:32:23;100173.26;;;33.43;29.13
50484;BME280;36409;52.168;20.878;2023-06-26T12:34:52;100165.91;;;33.60;29.05
50484;BME280;36409;52.168;20.878;2023-06-26T12:37:21;100171.52;;;33.82;28.61
50484;BME280;36409;52.168;20.878;2023-06-26T12:39:51;100171.23;;;33.77;28.69
50484;BME280;36409;52.168;20.878;2023-06-26T12:42:22;100167.04;;;33.34;28.68
50484;BME280;36409;52.168;20.878;2023-06-26T12:44:52;100162.93;;;32.99;28.61
50484;BME280;36409;52.168;20.878;2023-06-26T12:47:26;100157.71;;;32.89;28.73
50484;BME280;36409;52.168;20.878;2023-06-26T12:49:57;100157.67;;;33.05;28.92
50484;BME280;36409;52.168;20.878;2023-06-26T12:52:26;100153.67;;;33.33;28.81
50484;BME280;36409;52.168;20.878;2023-06-26T12:54:55;100149.00;;;33.58;28.72
50484;BME280;36409;52.168;20.878;2023-06-26T12:57:25;100150.63;;;33.67;28.41
50484;BME280;36409;52.168;20.878;2023-06-26T12:59:54;100148.38;;;33.79;28.29